createdAt,value
2022-10-04T00:01:48.756Z,6.75
2022-10-04T00:04:04.576Z,7.10
2022-10-04T00:06:14.522Z,4.00
2022-10-04T00:08:26.528Z,3.20
2022-10-04T00:10:32.580Z,3.13
2022-10-04T00:12:41.418Z,3.95
2022-10-04T00:14:45.503Z,6.03
2022-10-04T00:16:50.066Z,15.75
2022-10-04T00:19:04.587Z,3.90
2022-10-04T00:21:09.505Z,3.45
2022-10-04T00:23:30.420Z,7.95
2022-10-04T00:25:37.480Z,5.50
2022-10-04T00:28:28.678Z,4.20
2022-10-04T00:30:38.451Z,10.50
2022-10-04T00:32:49.629Z,7.90
2022-10-04T00:34:54.173Z,5.15
2022-10-04T00:36:58.444Z,6.95
2022-10-04T00:39:26.821Z,4.40
2022-10-04T00:41:35.543Z,5.63
2022-10-04T00:43:44.049Z,14.18
2022-10-04T00:45:50.152Z,5.35
2022-10-04T00:48:31.108Z,9.55
2022-10-04T00:50:38.395Z,5.13
2022-10-04T00:52:46.876Z,4.72
2022-10-04T00:54:53.238Z,3.63
2022-10-04T00:56:59.407Z,5.38
2022-10-04T00:59:12.004Z,7.82
2022-10-04T01:01:15.360Z,7.30
2022-10-04T01:03:25.240Z,14.40
2022-10-04T01:05:33.549Z,5.45
2022-10-04T01:07:42.061Z,5.13
2022-10-04T01:09:49.444Z,4.75
2022-10-04T01:12:01.540Z,6.30
2022-10-04T01:14:11.285Z,4.85
2022-10-04T01:16:18.826Z,5.07
2022-10-04T01:18:31.539Z,3.63
2022-10-04T01:20:37.330Z,3.55
2022-10-04T01:22:45.488Z,4.28
2022-10-04T01:24:48.875Z,4.55
2022-10-04T01:26:52.630Z,3.20
2022-10-04T01:28:59.201Z,5.70
2022-10-04T01:31:02.841Z,4.65
2022-10-04T01:33:07.063Z,5.90
2022-10-04T01:35:11.837Z,4.78
2022-10-04T01:37:15.202Z,3.53
2022-10-04T01:39:22.609Z,10.68
2022-10-04T01:41:30.220Z,4.70
2022-10-04T01:43:35.326Z,5.50
2022-10-04T01:45:41.076Z,6.53
2022-10-04T01:47:49.279Z,3.72
2022-10-04T01:49:55.744Z,3.58
2022-10-04T01:52:04.389Z,3.10
2022-10-04T01:54:11.683Z,4.05
2022-10-04T01:56:18.873Z,3.80
2022-10-04T01:58:27.170Z,7.22
2022-10-04T02:00:30.732Z,7.30
2022-10-04T02:02:37.924Z,3.13
2022-10-04T02:04:42.445Z,5.40
2022-10-04T02:06:47.981Z,3.22
2022-10-04T02:08:57.638Z,4.57
2022-10-04T02:11:02.888Z,10.82
2022-10-04T02:13:12.008Z,6.50
2022-10-04T02:15:16.116Z,3.10
2022-10-04T02:17:20.052Z,2.78
2022-10-04T02:19:25.123Z,5.00
2022-10-04T02:21:28.627Z,3.47
2022-10-04T02:23:32.547Z,4.78
2022-10-04T02:25:38.252Z,4.13
2022-10-04T02:27:41.645Z,7.07
2022-10-04T02:29:46.301Z,4.25
2022-10-04T02:32:09.952Z,3.00
2022-10-04T02:34:13.871Z,3.90
2022-10-04T02:36:18.512Z,7.07
2022-10-04T02:38:26.576Z,7.13
2022-10-04T02:40:36.644Z,11.10
2022-10-04T02:42:45.679Z,5.60
2022-10-04T02:44:54.263Z,3.75
2022-10-04T02:47:07.488Z,5.53
2022-10-04T02:49:20.098Z,4.07
2022-10-04T02:51:27.212Z,4.05
2022-10-04T02:53:37.312Z,8.10
2022-10-04T02:55:43.587Z,7.72
2022-10-04T02:57:47.370Z,2.75
2022-10-04T02:59:52.982Z,2.92
2022-10-04T03:02:02.233Z,3.40
2022-10-04T03:04:05.837Z,7.50
2022-10-04T03:06:10.278Z,4.10
2022-10-04T03:08:14.565Z,4.10
2022-10-04T03:10:18.803Z,7.13
2022-10-04T03:12:22.235Z,7.30
2022-10-04T03:14:28.436Z,4.88
2022-10-04T03:16:38.316Z,6.13
2022-10-04T03:18:42.300Z,6.82
2022-10-04T03:20:46.392Z,4.53
2022-10-04T03:22:55.537Z,5.05
2022-10-04T03:24:59.773Z,3.67
2022-10-04T03:27:07.181Z,4.93
2022-10-04T03:29:12.766Z,4.13
2022-10-04T03:31:17.144Z,7.90
2022-10-04T03:33:25.162Z,8.68
2022-10-04T03:35:31.169Z,4.70
2022-10-04T03:37:38.756Z,4.93
2022-10-04T03:39:44.860Z,2.75
2022-10-04T03:41:48.462Z,4.95
2022-10-04T03:43:52.315Z,11.07
2022-10-04T03:45:58.489Z,7.18
2022-10-04T03:48:06.724Z,5.20
2022-10-04T03:50:17.331Z,6.90
2022-10-04T03:52:25.133Z,5.03
2022-10-04T03:54:29.571Z,6.03
2022-10-04T03:56:34.732Z,3.95
2022-10-04T03:58:38.504Z,5.35
2022-10-04T04:00:57.298Z,10.38
2022-10-04T04:03:02.980Z,5.30
2022-10-04T04:05:11.604Z,5.65
2022-10-04T04:07:21.537Z,6.35
2022-10-04T04:09:32.150Z,6.47
2022-10-04T04:11:37.208Z,4.88
2022-10-04T04:13:45.054Z,5.38
2022-10-04T04:15:48.417Z,5.80
2022-10-04T04:17:55.527Z,6.60
2022-10-04T04:20:06.126Z,4.30
2022-10-04T04:22:16.725Z,7.03
2022-10-04T04:24:26.767Z,4.28
2022-10-04T04:26:37.476Z,6.53
2022-10-04T04:28:43.688Z,8.98
2022-10-04T04:30:49.642Z,4.28
2022-10-04T04:32:56.559Z,4.20
2022-10-04T04:35:07.243Z,3.75
2022-10-04T04:37:12.374Z,5.22
2022-10-04T04:39:37.440Z,6.88
2022-10-04T04:41:43.762Z,4.82
2022-10-04T04:43:52.937Z,4.93
2022-10-04T04:46:25.545Z,7.38
2022-10-04T04:48:24.276Z,5.05
2022-10-04T04:50:31.500Z,4.15
2022-10-04T04:52:36.167Z,4.57
2022-10-04T04:54:41.500Z,5.07
2022-10-04T04:56:45.570Z,7.35
2022-10-04T04:58:51.304Z,4.55
2022-10-04T05:00:58.663Z,6.68
2022-10-04T05:03:04.185Z,4.63
2022-10-04T05:05:22.307Z,4.82
2022-10-04T05:07:26.128Z,9.13
2022-10-04T05:09:32.429Z,5.53
2022-10-04T05:11:40.251Z,7.30
2022-10-04T05:13:47.731Z,8.32
2022-10-04T05:15:55.542Z,8.75
2022-10-04T05:17:59.572Z,3.95
2022-10-04T05:20:04.302Z,7.93
2022-10-04T05:22:12.203Z,7.45
2022-10-04T05:24:21.893Z,4.85
2022-10-04T05:26:30.419Z,5.43
2022-10-04T05:28:35.176Z,5.63
2022-10-04T05:30:48.756Z,5.60
2022-10-04T05:33:01.413Z,4.10
2022-10-04T05:35:14.830Z,5.40
2022-10-04T05:37:35.545Z,15.73
2022-10-04T05:39:44.640Z,7.85
2022-10-04T05:41:57.721Z,5.47
2022-10-04T05:44:04.261Z,6.85
2022-10-04T05:46:29.967Z,7.03
2022-10-04T05:48:33.623Z,5.47
2022-10-04T05:50:40.660Z,5.05
2022-10-04T05:52:45.032Z,5.30
2022-10-04T05:54:48.588Z,5.80
2022-10-04T05:57:21.656Z,5.95
2022-10-04T05:59:45.899Z,4.15
2022-10-04T06:01:58.425Z,5.13
2022-10-04T06:04:22.126Z,4.97
2022-10-04T06:06:32.300Z,5.95
2022-10-04T06:08:47.970Z,5.15
2022-10-04T06:11:14.305Z,5.50
2022-10-04T06:13:36.172Z,6.57
2022-10-04T06:15:58.737Z,6.10
2022-10-04T06:18:16.197Z,4.32
2022-10-04T06:20:55.508Z,5.00
2022-10-04T06:23:03.563Z,7.00
2022-10-04T06:25:11.416Z,5.43
2022-10-04T06:27:20.994Z,6.43
2022-10-04T06:29:27.774Z,7.63
2022-10-04T06:32:01.335Z,4.88
2022-10-04T06:34:43.529Z,6.15
2022-10-04T06:37:03.272Z,5.93
2022-10-04T06:39:28.952Z,7.28
2022-10-04T06:41:55.281Z,11.47
2022-10-04T06:44:19.620Z,5.10
2022-10-04T06:46:28.656Z,7.47
2022-10-04T06:48:42.463Z,7.23
2022-10-04T06:50:51.248Z,5.33
2022-10-04T06:53:19.225Z,5.70
2022-10-04T06:55:48.180Z,9.80
2022-10-04T06:58:26.060Z,3.60
2022-10-04T07:00:36.885Z,3.43
2022-10-04T07:02:42.793Z,4.20
2022-10-04T07:05:09.348Z,3.67
2022-10-04T07:07:35.214Z,9.07
2022-10-04T07:09:43.331Z,4.53
2022-10-04T07:11:52.237Z,13.57
2022-10-04T07:14:01.084Z,9.90
2022-10-04T07:16:09.858Z,6.60
2022-10-04T07:18:19.622Z,4.20
2022-10-04T07:20:25.537Z,5.83
2022-10-04T07:22:33.910Z,6.80
2022-10-04T07:24:44.143Z,8.33
2022-10-04T07:26:48.783Z,6.27
2022-10-04T07:29:10.913Z,10.27
2022-10-04T07:31:23.118Z,7.63
2022-10-04T07:33:29.005Z,4.37
2022-10-04T07:35:37.672Z,4.40
2022-10-04T07:37:48.846Z,7.67
2022-10-04T07:39:54.788Z,4.50
2022-10-04T07:41:58.998Z,4.90
2022-10-04T07:44:09.204Z,4.23
2022-10-04T07:46:16.398Z,3.47
2022-10-04T07:48:23.513Z,7.93
2022-10-04T07:50:28.711Z,5.10
2022-10-04T07:52:44.648Z,7.50
2022-10-04T07:54:52.589Z,4.20
2022-10-04T07:56:58.132Z,6.43
2022-10-04T07:59:05.765Z,3.70
2022-10-04T08:01:16.543Z,6.93
2022-10-04T08:03:25.430Z,3.37
2022-10-04T08:05:30.888Z,3.27
2022-10-04T08:07:41.325Z,4.50
2022-10-04T08:09:50.747Z,2.10
2022-10-04T08:12:01.771Z,2.93
2022-10-04T08:14:08.933Z,5.03
2022-10-04T08:16:18.863Z,6.53
2022-10-04T08:18:34.112Z,4.23
2022-10-04T08:20:40.368Z,1.93
2022-10-04T08:22:54.158Z,3.67
2022-10-04T08:25:05.088Z,5.90
2022-10-04T08:27:17.681Z,5.30
2022-10-04T08:29:45.172Z,3.73
2022-10-04T08:31:52.831Z,2.80
2022-10-04T08:34:04.012Z,2.90
2022-10-04T08:36:13.241Z,4.03
2022-10-04T08:38:37.722Z,3.40
2022-10-04T08:40:59.691Z,2.03
2022-10-04T08:43:24.500Z,2.60
2022-10-04T08:45:49.178Z,2.80
2022-10-04T08:48:24.795Z,5.70
2022-10-04T08:50:38.716Z,2.73
2022-10-04T08:53:06.331Z,2.63
2022-10-04T08:55:32.353Z,2.30
2022-10-04T08:57:46.958Z,1.33
2022-10-04T09:00:05.959Z,1.60
2022-10-04T09:02:17.546Z,1.80
2022-10-04T09:04:37.571Z,4.60
2022-10-04T09:06:50.753Z,1.73
2022-10-04T09:09:29.996Z,1.03
2022-10-04T09:11:48.364Z,2.47
2022-10-04T09:14:01.255Z,5.40
2022-10-04T09:16:11.109Z,1.93
2022-10-04T09:18:22.546Z,1.70
2022-10-04T09:20:38.700Z,1.00
2022-10-04T09:22:50.168Z,1.00
2022-10-04T09:25:10.628Z,1.20
2022-10-04T09:27:50.058Z,1.00
2022-10-04T09:29:56.491Z,1.00
2022-10-04T09:32:19.180Z,2.10
2022-10-04T09:34:37.280Z,1.53
2022-10-04T09:37:08.166Z,1.17
2022-10-04T09:39:30.570Z,2.80
2022-10-04T09:41:48.519Z,2.40
2022-10-04T09:44:06.964Z,1.93
2022-10-04T09:46:16.679Z,2.10
2022-10-04T09:48:27.249Z,1.30
2022-10-04T09:50:43.029Z,1.57
2022-10-04T09:52:50.268Z,3.90
2022-10-04T09:54:59.211Z,1.27
2022-10-04T09:57:11.463Z,2.10
2022-10-04T09:59:39.073Z,1.57
2022-10-04T10:01:51.250Z,1.60
2022-10-04T10:04:25.426Z,1.40
2022-10-04T10:06:46.655Z,1.27
2022-10-04T10:08:55.635Z,0.90
2022-10-04T10:11:21.004Z,1.87
2022-10-04T10:13:40.952Z,1.10
2022-10-04T10:15:58.210Z,1.00
2022-10-04T10:18:11.772Z,1.83
2022-10-04T10:20:30.181Z,1.10
2022-10-04T10:22:54.808Z,0.90
2022-10-04T10:25:15.995Z,1.30
2022-10-04T10:27:25.248Z,2.53
2022-10-04T10:29:43.628Z,1.33
2022-10-04T10:31:55.313Z,1.50
2022-10-04T10:34:21.501Z,1.67
2022-10-04T10:36:39.854Z,2.03
2022-10-04T10:38:49.480Z,1.13
2022-10-04T10:41:04.515Z,3.50
2022-10-04T10:43:22.816Z,1.10
2022-10-04T10:45:38.161Z,1.70
2022-10-04T10:47:44.865Z,1.23
2022-10-04T10:50:04.851Z,1.00
2022-10-04T10:52:35.331Z,1.37
2022-10-04T10:54:56.476Z,2.60
2022-10-04T10:57:13.799Z,1.60
2022-10-04T11:00:01.759Z,2.97
2022-10-04T11:02:47.725Z,1.53
2022-10-04T11:04:57.168Z,1.20
2022-10-04T11:07:22.955Z,1.77
2022-10-04T11:09:44.694Z,1.20
2022-10-04T11:12:01.116Z,1.90
2022-10-04T11:14:19.163Z,4.53
2022-10-04T11:16:59.453Z,2.80
2022-10-04T11:19:36.502Z,1.10
2022-10-04T11:22:21.398Z,4.70
2022-10-04T11:24:58.114Z,0.93
2022-10-04T11:27:20.713Z,0.90
2022-10-04T11:29:29.676Z,0.90
2022-10-04T11:31:54.942Z,1.77
2022-10-04T11:34:35.374Z,1.47
2022-10-04T11:36:47.722Z,1.17
2022-10-04T11:39:03.452Z,1.80
2022-10-04T11:41:15.755Z,0.73
2022-10-04T11:43:27.691Z,0.90
2022-10-04T11:45:47.711Z,5.03
2022-10-04T11:48:03.137Z,3.20
2022-10-04T11:50:24.601Z,1.20
2022-10-04T11:52:51.532Z,2.20
2022-10-04T11:55:20.585Z,3.17
2022-10-04T11:57:32.272Z,3.97
2022-10-04T11:59:48.888Z,1.20
2022-10-04T12:02:03.183Z,1.73
2022-10-04T12:04:34.375Z,1.10
2022-10-04T12:06:57.727Z,1.73
2022-10-04T12:09:06.011Z,2.60
2022-10-04T12:12:00.602Z,1.20
2022-10-04T12:14:24.552Z,2.00
2022-10-04T12:16:45.913Z,1.37
2022-10-04T12:19:28.022Z,1.20
2022-10-04T12:21:54.597Z,7.97
2022-10-04T12:24:04.503Z,1.67
2022-10-04T12:26:43.542Z,1.27
2022-10-04T12:29:00.686Z,10.63
2022-10-04T12:31:25.516Z,1.83
2022-10-04T12:33:36.035Z,1.50
2022-10-04T12:35:54.793Z,1.97
2022-10-04T12:38:25.280Z,1.53
2022-10-04T12:40:35.397Z,1.77
2022-10-04T12:42:47.005Z,1.70
2022-10-04T12:45:04.786Z,1.13
2022-10-04T12:47:38.675Z,2.30
2022-10-04T12:49:49.864Z,2.27
2022-10-04T12:52:06.879Z,1.10
2022-10-04T12:54:29.344Z,2.03
2022-10-04T12:56:48.386Z,2.40
2022-10-04T12:59:00.986Z,1.70
2022-10-04T13:01:11.546Z,1.90
2022-10-04T13:03:29.436Z,3.10
2022-10-04T13:05:36.149Z,1.40
2022-10-04T13:08:01.451Z,2.10
2022-10-04T13:10:25.051Z,2.10
2022-10-04T13:12:38.964Z,2.10
2022-10-04T13:14:46.698Z,1.50
2022-10-04T13:19:24.551Z,1.80
2022-10-04T13:21:45.081Z,1.10
2022-10-04T13:23:56.935Z,1.53
2022-10-04T13:26:11.644Z,2.53
2022-10-04T13:28:24.765Z,3.97
2022-10-04T13:30:29.802Z,4.27
2022-10-04T13:32:43.436Z,2.50
2022-10-04T13:34:56.265Z,1.80
2022-10-04T13:37:16.224Z,2.03
2022-10-04T13:39:59.562Z,2.43
2022-10-04T13:42:26.500Z,2.77
2022-10-04T13:44:49.447Z,2.07
2022-10-04T13:47:06.361Z,3.07
2022-10-04T13:49:25.937Z,3.53
2022-10-04T13:51:45.207Z,1.20
2022-10-04T13:54:16.335Z,2.40
2022-10-04T13:56:42.716Z,2.00
2022-10-04T13:58:49.933Z,1.80
2022-10-04T14:01:23.318Z,1.63
2022-10-04T14:03:46.946Z,4.50
2022-10-04T14:06:53.249Z,1.87
2022-10-04T14:09:29.353Z,3.00
2022-10-04T14:11:55.227Z,3.00
2022-10-04T14:14:21.796Z,1.67
2022-10-04T14:17:05.218Z,5.13
2022-10-04T14:19:41.930Z,2.33
2022-10-04T14:22:23.155Z,3.90
2022-10-04T14:25:12.325Z,2.43
2022-10-04T14:27:44.017Z,2.67
2022-10-04T14:30:08.271Z,2.27
2022-10-04T14:32:28.720Z,2.37
2022-10-04T14:34:39.685Z,2.37
2022-10-04T14:37:12.293Z,3.00
2022-10-04T14:39:36.609Z,2.70
2022-10-04T14:42:04.056Z,4.93
2022-10-04T14:44:16.691Z,4.20
2022-10-04T14:46:23.664Z,2.53
2022-10-04T14:48:40.221Z,3.77
2022-10-04T14:50:58.226Z,3.17
2022-10-04T14:53:17.168Z,3.00
2022-10-04T14:55:39.551Z,3.93
2022-10-04T14:58:06.129Z,2.67
2022-10-04T15:00:24.467Z,3.13
2022-10-04T15:03:05.988Z,5.03
2022-10-04T15:05:32.213Z,3.40
2022-10-04T15:07:38.602Z,2.37
2022-10-04T15:09:55.767Z,8.57
2022-10-04T15:12:27.284Z,3.47
2022-10-04T15:14:35.818Z,2.53
2022-10-04T15:16:52.941Z,2.37
2022-10-04T15:19:00.279Z,4.10
2022-10-04T15:21:12.427Z,2.40
2022-10-04T15:23:20.608Z,3.00
2022-10-04T15:25:41.456Z,2.40
2022-10-04T15:27:55.300Z,2.43
2022-10-04T15:30:11.285Z,4.07
2022-10-04T15:32:31.863Z,7.03
2022-10-04T15:34:46.415Z,4.00
2022-10-04T15:37:25.462Z,2.17
2022-10-04T15:40:04.217Z,2.50
2022-10-04T15:42:14.566Z,3.27
2022-10-04T15:44:47.970Z,2.70
2022-10-04T15:46:57.112Z,6.40
2022-10-04T15:49:25.265Z,13.10
2022-10-04T15:51:44.933Z,12.60
2022-10-04T15:54:08.344Z,11.83
2022-10-04T15:56:34.344Z,11.23
2022-10-04T15:59:23.174Z,4.67
2022-10-04T16:01:41.064Z,6.33
2022-10-04T16:03:51.996Z,14.63
2022-10-04T16:06:05.633Z,7.10
2022-10-04T16:08:33.394Z,8.47
2022-10-04T16:11:11.093Z,7.67
2022-10-04T16:13:28.724Z,13.60
2022-10-04T16:15:37.326Z,5.87
2022-10-04T16:18:02.654Z,5.47
2022-10-04T16:20:51.368Z,6.47
2022-10-04T16:23:29.105Z,7.40
2022-10-04T16:25:39.325Z,10.60
2022-10-04T16:27:59.420Z,5.40
2022-10-04T16:30:26.183Z,6.73
2022-10-04T16:32:39.183Z,7.20
2022-10-04T16:34:51.241Z,8.17
2022-10-04T16:37:00.000Z,8.20
2022-10-04T16:39:23.650Z,5.87
2022-10-04T16:41:36.763Z,6.03
2022-10-04T16:43:52.875Z,7.80
2022-10-04T16:46:10.989Z,6.90
2022-10-04T16:48:31.524Z,10.10
2022-10-04T16:51:12.174Z,8.70
2022-10-04T16:53:32.363Z,16.63
2022-10-04T16:55:53.352Z,8.77
2022-10-04T16:58:41.395Z,11.27
2022-10-04T17:00:44.867Z,25.10
2022-10-04T17:03:08.853Z,19.87
2022-10-04T17:05:36.098Z,12.43
2022-10-04T17:07:52.193Z,8.93
2022-10-04T17:10:04.270Z,11.90
2022-10-04T17:12:18.813Z,10.17
2022-10-04T17:14:57.790Z,7.20
2022-10-04T17:17:12.054Z,7.50
2022-10-04T17:19:26.052Z,11.07
2022-10-04T17:21:37.548Z,11.40
2022-10-04T17:24:10.940Z,9.40
2022-10-04T17:26:25.559Z,14.10
2022-10-04T17:28:35.317Z,10.47
2022-10-04T17:30:50.224Z,18.30
2022-10-04T17:33:16.493Z,18.27
2022-10-04T17:35:54.556Z,24.60
2022-10-04T17:38:02.761Z,23.50
2022-10-04T17:40:30.112Z,20.73
2022-10-04T17:42:44.297Z,21.27
2022-10-04T17:45:22.255Z,28.42
2022-10-04T17:47:54.889Z,32.87
2022-10-04T17:50:21.731Z,23.48
2022-10-04T17:52:49.259Z,15.23
2022-10-04T17:55:18.487Z,8.52
2022-10-04T17:57:30.817Z,11.10
2022-10-04T17:59:43.703Z,15.50
2022-10-04T18:01:54.881Z,15.30
2022-10-04T18:04:09.004Z,10.35
2022-10-04T18:06:25.967Z,9.90
2022-10-04T18:08:46.602Z,5.70
2022-10-04T18:10:53.481Z,8.67
2022-10-04T18:13:02.269Z,9.65
2022-10-04T18:15:16.328Z,13.13
2022-10-04T18:17:29.884Z,11.57
2022-10-04T18:19:41.581Z,11.93
2022-10-04T18:21:53.005Z,11.57
2022-10-04T18:23:59.425Z,9.40
2022-10-04T18:26:09.308Z,12.57
2022-10-04T18:28:15.600Z,13.88
2022-10-04T18:30:21.137Z,16.10
2022-10-04T18:32:38.083Z,8.00
2022-10-04T18:34:42.401Z,13.57
2022-10-04T18:36:56.282Z,13.88
2022-10-04T18:39:17.737Z,11.70
2022-10-04T18:41:24.363Z,12.57
2022-10-04T18:43:31.139Z,13.20
2022-10-04T18:45:37.285Z,13.35
2022-10-04T18:47:42.711Z,14.32
2022-10-04T18:49:51.076Z,14.10
2022-10-04T18:52:10.344Z,12.10
2022-10-04T18:54:25.135Z,11.35
2022-10-04T18:56:33.909Z,10.82
2022-10-04T18:59:12.092Z,10.13
2022-10-04T19:01:56.141Z,7.82
2022-10-04T19:04:09.900Z,10.32
2022-10-04T19:06:17.763Z,9.52
2022-10-04T19:08:35.799Z,6.93
2022-10-04T19:10:45.477Z,9.85
2022-10-04T19:13:10.941Z,16.42
2022-10-04T19:15:28.013Z,13.98
2022-10-04T19:17:36.163Z,14.35
2022-10-04T19:19:46.517Z,17.17
2022-10-04T19:21:59.202Z,16.45
2022-10-04T19:24:32.038Z,20.00
2022-10-04T19:26:40.016Z,21.92
2022-10-04T19:28:43.410Z,25.60
2022-10-04T19:31:01.036Z,21.98
2022-10-04T19:33:16.113Z,20.52
2022-10-04T19:35:31.265Z,21.73
2022-10-04T19:37:40.451Z,26.75
2022-10-04T19:39:51.795Z,26.45
2022-10-04T19:42:00.929Z,28.15
2022-10-04T19:44:14.638Z,23.13
2022-10-04T19:46:28.944Z,15.50
2022-10-04T19:48:38.546Z,15.32
2022-10-04T19:50:49.017Z,17.05
2022-10-04T19:52:55.469Z,14.85
2022-10-04T19:55:05.974Z,12.65
2022-10-04T19:57:15.238Z,10.82
2022-10-04T19:59:24.631Z,17.70
2022-10-04T20:01:29.997Z,9.63
2022-10-04T20:03:33.422Z,9.20
2022-10-04T20:05:46.048Z,9.13
2022-10-04T20:07:57.079Z,15.30
2022-10-04T20:10:23.337Z,10.73
2022-10-04T20:12:36.075Z,8.27
2022-10-04T20:14:48.639Z,13.85
2022-10-04T20:17:06.046Z,7.07
2022-10-04T20:19:22.560Z,8.00
2022-10-04T20:21:31.287Z,6.80
2022-10-04T20:23:59.037Z,8.80
2022-10-04T20:26:04.175Z,15.25
2022-10-04T20:28:08.487Z,10.20
2022-10-04T20:30:14.862Z,12.00
2022-10-04T20:32:51.433Z,10.65
2022-10-04T20:34:55.738Z,13.32
2022-10-04T20:37:00.964Z,7.85
2022-10-04T20:39:06.664Z,12.57
2022-10-04T20:42:03.360Z,8.20
2022-10-04T20:44:09.218Z,6.07
2022-10-04T20:46:23.996Z,5.05
2022-10-04T20:48:29.648Z,6.72
2022-10-04T20:50:42.228Z,5.65
2022-10-04T20:52:49.599Z,6.40
2022-10-04T20:54:53.813Z,5.68
2022-10-04T20:56:57.827Z,11.73
2022-10-04T20:59:02.660Z,11.55
2022-10-04T21:01:39.823Z,8.98
2022-10-04T21:03:43.245Z,8.75
2022-10-04T21:05:59.342Z,6.28
2022-10-04T21:08:31.115Z,6.10
2022-10-04T21:10:34.467Z,5.55
2022-10-04T21:12:40.623Z,6.60
2022-10-04T21:15:03.186Z,6.30
2022-10-04T21:17:27.234Z,12.23
2022-10-04T21:19:51.667Z,6.30
2022-10-04T21:21:54.942Z,4.15
2022-10-04T21:23:59.630Z,4.72
2022-10-04T21:26:22.278Z,7.90
2022-10-04T21:28:35.679Z,6.40
2022-10-04T21:30:39.130Z,9.98
2022-10-04T21:32:42.489Z,10.10
2022-10-04T21:34:53.494Z,13.57
2022-10-04T21:36:58.720Z,7.20
2022-10-04T21:39:03.336Z,5.05
2022-10-04T21:41:06.813Z,8.10
2022-10-04T21:43:10.486Z,8.07
2022-10-04T21:45:13.903Z,6.75
2022-10-04T21:47:17.529Z,7.40
2022-10-04T21:49:20.801Z,6.55
2022-10-04T21:51:23.921Z,6.82
2022-10-04T21:53:27.110Z,6.72
2022-10-04T21:55:31.732Z,7.97
2022-10-04T21:57:35.866Z,7.95
2022-10-04T21:59:39.204Z,8.73
2022-10-04T22:01:42.464Z,4.47
2022-10-04T22:03:45.581Z,6.65
2022-10-04T22:05:48.772Z,5.65
2022-10-04T22:07:52.028Z,6.35
2022-10-04T22:09:55.312Z,5.45
2022-10-04T22:11:59.954Z,6.50
2022-10-04T22:14:03.357Z,5.07
2022-10-04T22:16:07.520Z,5.15
2022-10-04T22:18:10.934Z,5.47
2022-10-04T22:20:14.171Z,10.32
2022-10-04T22:22:18.313Z,7.38
2022-10-04T22:24:22.641Z,3.70
2022-10-04T22:26:28.089Z,8.07
2022-10-04T22:28:34.765Z,9.00
2022-10-04T22:30:37.974Z,5.55
2022-10-04T22:32:41.337Z,3.38
2022-10-04T22:34:44.708Z,5.32
2022-10-04T22:36:49.938Z,7.45
2022-10-04T22:38:59.338Z,4.60
2022-10-04T22:41:02.608Z,6.82
2022-10-04T22:43:12.475Z,4.97
2022-10-04T22:45:24.012Z,4.30
2022-10-04T22:47:27.322Z,4.78
2022-10-04T22:49:33.295Z,4.78
2022-10-04T22:51:37.431Z,5.60
2022-10-04T22:53:44.488Z,4.95
2022-10-04T22:55:49.520Z,5.72
2022-10-04T22:57:52.980Z,4.72
2022-10-04T22:59:56.157Z,4.68
2022-10-04T23:02:07.129Z,4.70
2022-10-04T23:04:16.594Z,3.78
2022-10-04T23:06:19.951Z,9.23
2022-10-04T23:08:23.209Z,4.30
2022-10-04T23:10:26.453Z,8.65
2022-10-04T23:12:29.820Z,3.90
2022-10-04T23:14:35.776Z,4.05
2022-10-04T23:16:39.931Z,5.88
2022-10-04T23:18:44.747Z,4.00
2022-10-04T23:20:57.986Z,12.07
2022-10-04T23:23:01.341Z,7.00
2022-10-04T23:25:15.513Z,4.65
2022-10-04T23:27:19.416Z,7.50
2022-10-04T23:29:25.339Z,5.80
2022-10-04T23:31:28.864Z,6.65
2022-10-04T23:33:32.295Z,7.22
2022-10-04T23:35:36.953Z,5.47
2022-10-04T23:37:41.730Z,7.15
2022-10-04T23:39:45.913Z,11.98
2022-10-04T23:41:49.167Z,5.93
2022-10-04T23:43:52.672Z,4.07
2022-10-04T23:45:58.867Z,3.60
2022-10-04T23:48:02.457Z,4.68
2022-10-04T23:50:19.579Z,4.50
2022-10-04T23:52:27.323Z,6.13
2022-10-04T23:54:31.332Z,3.85
2022-10-04T23:56:34.551Z,5.78
2022-10-04T23:58:40.888Z,4.57
